createdAt,value
2023-03-11T00:02:12.618Z,0.50
2023-03-11T00:04:41.055Z,0.40
2023-03-11T00:07:10.249Z,0.63
2023-03-11T00:09:39.346Z,0.70
2023-03-11T00:12:10.811Z,0.40
2023-03-11T00:14:39.446Z,0.40
2023-03-11T00:17:08.261Z,0.40
2023-03-11T00:19:37.630Z,0.37
2023-03-11T00:22:06.673Z,0.50
2023-03-11T00:24:35.829Z,0.50
2023-03-11T00:27:04.388Z,0.50
2023-03-11T00:29:34.876Z,0.30
2023-03-11T00:32:03.615Z,0.60
2023-03-11T00:34:32.127Z,0.50
2023-03-11T00:37:00.579Z,0.40
2023-03-11T00:39:29.211Z,0.53
2023-03-11T00:41:57.840Z,0.77
2023-03-11T00:44:26.460Z,0.50
2023-03-11T00:46:57.011Z,0.50
2023-03-11T00:49:25.359Z,0.40
2023-03-11T00:51:54.264Z,0.30
2023-03-11T00:54:22.654Z,0.47
2023-03-11T00:56:51.036Z,0.50
2023-03-11T00:59:19.426Z,0.53
2023-03-11T01:01:47.803Z,0.53
2023-03-11T01:04:17.708Z,0.63
2023-03-11T01:06:46.773Z,0.53
2023-03-11T01:09:15.367Z,0.80
2023-03-11T01:11:43.845Z,0.60
2023-03-11T01:14:14.926Z,0.40
2023-03-11T01:16:43.971Z,0.50
2023-03-11T01:19:12.677Z,0.40
2023-03-11T01:21:43.167Z,0.77
2023-03-11T01:24:11.708Z,0.40
2023-03-11T01:26:40.186Z,0.40
2023-03-11T01:29:11.781Z,0.40
2023-03-11T01:31:41.839Z,0.37
2023-03-11T01:34:10.248Z,0.50
2023-03-11T01:36:38.696Z,0.70
2023-03-11T01:39:09.144Z,0.40
2023-03-11T01:41:37.689Z,0.40
2023-03-11T01:44:06.335Z,0.40
2023-03-11T01:46:36.709Z,0.40
2023-03-11T01:49:06.897Z,0.50
2023-03-11T01:51:37.604Z,0.60
2023-03-11T01:54:07.667Z,0.60
2023-03-11T01:56:39.437Z,0.50
2023-03-11T01:59:09.598Z,0.80
2023-03-11T02:01:40.866Z,0.53
2023-03-11T02:04:09.628Z,0.40
2023-03-11T02:06:38.581Z,0.40
2023-03-11T02:09:07.407Z,0.40
2023-03-11T02:11:37.507Z,0.40
2023-03-11T02:14:09.069Z,0.70
2023-03-11T02:16:37.551Z,0.50
2023-03-11T02:19:11.393Z,0.50
2023-03-11T02:21:39.874Z,0.40
2023-03-11T02:24:14.369Z,0.50
2023-03-11T02:26:44.836Z,0.40
2023-03-11T02:29:15.194Z,0.40
2023-03-11T02:31:44.141Z,0.40
2023-03-11T02:34:22.111Z,0.40
2023-03-11T02:36:50.506Z,0.37
2023-03-11T02:39:19.037Z,0.50
2023-03-11T02:41:48.352Z,0.40
2023-03-11T02:44:19.003Z,0.30
2023-03-11T02:46:47.596Z,0.37
2023-03-11T02:49:16.699Z,0.30
2023-03-11T02:51:45.168Z,0.50
2023-03-11T02:54:14.088Z,0.43
2023-03-11T02:56:42.603Z,0.40
2023-03-11T02:59:12.738Z,0.63
2023-03-11T03:01:43.228Z,0.50
2023-03-11T03:04:12.128Z,0.40
2023-03-11T03:06:40.660Z,0.50
2023-03-11T03:09:09.694Z,0.50
2023-03-11T03:11:38.282Z,0.40
2023-03-11T03:14:07.068Z,0.47
2023-03-11T03:16:35.664Z,0.40
2023-03-11T03:19:05.835Z,0.40
2023-03-11T03:21:34.427Z,0.40
2023-03-11T03:24:03.452Z,0.30
2023-03-11T03:26:31.947Z,0.40
2023-03-11T03:29:00.936Z,0.40
2023-03-11T03:31:29.369Z,0.50
2023-03-11T03:33:57.916Z,0.50
2023-03-11T03:36:27.909Z,0.50
2023-03-11T03:38:57.435Z,0.40
2023-03-11T03:41:25.769Z,0.60
2023-03-11T03:43:54.840Z,0.40
2023-03-11T03:46:24.306Z,0.30
2023-03-11T03:48:53.152Z,0.50
2023-03-11T03:51:21.648Z,0.50
2023-03-11T03:53:51.865Z,0.60
2023-03-11T03:56:20.963Z,0.37
2023-03-11T03:58:49.562Z,0.30
2023-03-11T04:01:18.224Z,0.50
2023-03-11T04:03:46.728Z,0.40
2023-03-11T04:06:18.759Z,0.67
2023-03-11T04:08:47.577Z,0.40
2023-03-11T04:11:17.523Z,0.40
2023-03-11T04:13:46.327Z,0.40
2023-03-11T04:16:17.349Z,0.40
2023-03-11T04:18:46.040Z,0.57
2023-03-11T04:21:14.664Z,0.40
2023-03-11T04:23:43.113Z,0.60
2023-03-11T04:26:11.464Z,0.40
2023-03-11T04:28:43.085Z,0.40
2023-03-11T04:31:12.525Z,0.40
2023-03-11T04:33:41.126Z,0.50
2023-03-11T04:36:10.687Z,0.60
2023-03-11T04:38:39.323Z,0.40
2023-03-11T04:41:08.849Z,0.40
2023-03-11T04:43:37.658Z,0.40
2023-03-11T04:46:07.829Z,0.30
2023-03-11T04:48:36.578Z,0.30
2023-03-11T04:51:05.217Z,0.40
2023-03-11T04:53:33.660Z,0.40
2023-03-11T04:56:02.420Z,0.70
2023-03-11T04:58:30.866Z,0.40
2023-03-11T05:00:59.361Z,0.70
2023-03-11T05:03:29.637Z,1.00
2023-03-11T05:06:00.138Z,0.50
2023-03-11T05:08:28.890Z,0.40
2023-03-11T05:10:57.258Z,0.43
2023-03-11T05:13:26.190Z,0.50
2023-03-11T05:15:54.769Z,0.33
2023-03-11T05:18:23.428Z,0.50
2023-03-11T05:20:53.464Z,0.73
2023-03-11T05:23:21.807Z,0.73
2023-03-11T05:25:50.801Z,0.30
2023-03-11T05:28:19.274Z,0.43
2023-03-11T05:30:47.950Z,0.50
2023-03-11T05:33:16.691Z,0.40
2023-03-11T05:35:45.429Z,0.60
2023-03-11T05:38:15.372Z,0.70
2023-03-11T05:40:44.079Z,0.47
2023-03-11T05:43:12.555Z,0.50
2023-03-11T05:45:41.165Z,0.70
2023-03-11T05:48:09.675Z,0.60
2023-03-11T05:50:38.107Z,0.50
2023-03-11T05:53:21.292Z,0.50
2023-03-11T05:55:58.013Z,0.43
2023-03-11T05:58:27.163Z,0.30
2023-03-11T06:00:55.926Z,0.60
2023-03-11T06:03:24.680Z,0.50
2023-03-11T06:05:54.049Z,0.30
2023-03-11T06:08:24.273Z,0.37
2023-03-11T06:10:54.121Z,0.43
2023-03-11T06:13:22.846Z,0.60
2023-03-11T06:15:51.237Z,0.60
2023-03-11T06:18:19.772Z,0.50
2023-03-11T06:20:48.466Z,0.50
2023-03-11T06:23:16.933Z,0.60
2023-03-11T06:25:47.352Z,0.50
2023-03-11T06:28:17.087Z,0.43
2023-03-11T06:30:45.742Z,0.40
2023-03-11T06:33:15.211Z,0.50
2023-03-11T06:35:45.902Z,0.50
2023-03-11T06:38:14.581Z,0.70
2023-03-11T06:40:45.117Z,0.50
2023-03-11T06:43:15.196Z,0.87
2023-03-11T06:45:44.791Z,0.50
2023-03-11T06:48:16.218Z,0.40
2023-03-11T06:50:46.513Z,0.50
2023-03-11T06:53:16.186Z,0.50
2023-03-11T06:55:44.873Z,0.60
2023-03-11T06:58:13.432Z,0.37
2023-03-11T07:00:43.861Z,0.50
2023-03-11T07:03:12.416Z,0.50
2023-03-11T07:05:41.105Z,0.60
2023-03-11T07:08:09.528Z,0.77
2023-03-11T07:10:38.500Z,0.50
2023-03-11T07:13:07.942Z,0.50
2023-03-11T07:15:36.419Z,0.50
2023-03-11T07:18:06.782Z,0.47
2023-03-11T07:20:35.357Z,0.70
2023-03-11T07:23:03.999Z,0.43
2023-03-11T07:25:32.383Z,0.73
2023-03-11T07:28:00.765Z,0.50
2023-03-11T07:30:29.561Z,0.43
2023-03-11T07:32:58.782Z,0.80
2023-03-11T07:35:28.974Z,0.50
2023-03-11T07:37:57.644Z,0.50
2023-03-11T07:40:26.152Z,0.70
2023-03-11T07:42:54.529Z,0.50
2023-03-11T07:45:24.373Z,0.50
2023-03-11T07:47:52.823Z,0.67
2023-03-11T07:50:22.791Z,0.60
2023-03-11T07:52:52.629Z,0.90
2023-03-11T07:55:22.506Z,0.50
2023-03-11T07:57:52.092Z,0.47
2023-03-11T08:00:21.526Z,0.40
2023-03-11T08:02:50.389Z,0.70
2023-03-11T08:05:20.973Z,0.50
2023-03-11T08:07:49.740Z,0.53
2023-03-11T08:10:20.381Z,0.50
2023-03-11T08:12:49.076Z,0.50
2023-03-11T08:15:19.899Z,0.40
2023-03-11T08:17:48.177Z,2.20
2023-03-11T08:20:36.318Z,0.50
2023-03-11T08:23:05.047Z,0.67
2023-03-11T08:25:35.413Z,0.63
2023-03-11T08:28:04.380Z,0.50
2023-03-11T08:30:33.023Z,0.57
2023-03-11T08:33:01.521Z,0.40
2023-03-11T08:35:30.208Z,0.50
2023-03-11T08:38:01.022Z,0.60
2023-03-11T08:40:29.606Z,0.77
2023-03-11T08:43:07.930Z,0.60
2023-03-11T08:45:46.818Z,0.53
2023-03-11T08:48:16.517Z,0.47
2023-03-11T08:50:54.070Z,0.80
2023-03-11T08:53:23.189Z,0.60
2023-03-11T08:55:51.913Z,0.60
2023-03-11T08:58:40.563Z,0.67
2023-03-11T09:01:14.234Z,0.60
2023-03-11T09:03:43.276Z,0.60
2023-03-11T09:06:13.895Z,0.80
2023-03-11T09:08:49.490Z,1.00
2023-03-11T09:11:18.635Z,0.90
2023-03-11T09:13:47.158Z,0.67
2023-03-11T09:16:18.627Z,0.57
2023-03-11T09:18:47.370Z,0.60
2023-03-11T09:21:16.918Z,0.63
2023-03-11T09:23:45.539Z,0.87
2023-03-11T09:26:17.486Z,0.40
2023-03-11T09:28:49.442Z,0.50
2023-03-11T09:31:29.799Z,0.40
2023-03-11T09:33:58.318Z,0.50
2023-03-11T09:36:28.358Z,0.67
2023-03-11T09:38:56.824Z,0.70
2023-03-11T09:41:33.383Z,0.40
2023-03-11T09:44:13.274Z,0.30
2023-03-11T09:46:56.748Z,0.43
2023-03-11T09:49:29.019Z,0.40
2023-03-11T09:52:15.058Z,0.40
2023-03-11T09:54:44.419Z,0.40
2023-03-11T09:57:14.742Z,0.60
2023-03-11T09:59:44.837Z,0.50
2023-03-11T10:02:17.025Z,0.60
2023-03-11T10:04:59.106Z,0.50
2023-03-11T10:07:30.757Z,0.73
2023-03-11T10:10:03.259Z,0.40
2023-03-11T10:12:37.278Z,0.50
2023-03-11T10:15:12.962Z,0.80
2023-03-11T10:18:07.258Z,0.43
2023-03-11T10:20:45.256Z,0.40
2023-03-11T10:23:19.757Z,0.40
2023-03-11T10:25:54.895Z,0.67
2023-03-11T10:28:35.419Z,0.40
2023-03-11T10:31:06.909Z,0.43
2023-03-11T10:33:37.590Z,0.70
2023-03-11T10:36:09.022Z,0.43
2023-03-11T10:38:39.729Z,0.50
2023-03-11T10:41:09.906Z,0.40
2023-03-11T10:43:40.832Z,0.40
2023-03-11T10:46:16.538Z,0.70
2023-03-11T10:48:45.094Z,0.80
2023-03-11T10:51:18.104Z,0.40
2023-03-11T10:53:48.728Z,0.53
2023-03-11T10:56:27.636Z,0.40
2023-03-11T10:58:58.134Z,0.60
2023-03-11T11:01:26.702Z,1.03
2023-03-11T11:03:56.586Z,0.93
2023-03-11T11:06:29.004Z,0.50
2023-03-11T11:09:07.987Z,0.83
2023-03-11T11:11:45.034Z,0.70
2023-03-11T11:14:14.547Z,0.57
2023-03-11T11:16:42.957Z,0.80
2023-03-11T11:19:12.636Z,0.60
2023-03-11T11:21:43.593Z,0.50
2023-03-11T11:24:16.932Z,0.30
2023-03-11T11:27:04.438Z,0.50
2023-03-11T11:29:34.748Z,0.40
2023-03-11T11:32:18.998Z,0.50
2023-03-11T11:34:55.992Z,0.40
2023-03-11T11:37:31.702Z,0.47
2023-03-11T11:40:11.379Z,0.40
2023-03-11T11:42:40.679Z,0.40
2023-03-11T11:45:14.354Z,0.53
2023-03-11T11:47:45.464Z,0.50
2023-03-11T11:50:17.839Z,0.50
2023-03-11T11:52:50.555Z,0.50
2023-03-11T11:55:21.244Z,0.60
2023-03-11T11:57:51.118Z,1.07
2023-03-11T12:00:21.475Z,0.50
2023-03-11T12:03:05.614Z,1.00
2023-03-11T12:05:34.835Z,0.47
2023-03-11T12:08:10.549Z,0.50
2023-03-11T12:10:41.531Z,0.60
2023-03-11T12:13:22.226Z,0.40
2023-03-11T12:15:51.767Z,0.80
2023-03-11T12:18:23.785Z,0.70
2023-03-11T12:20:54.998Z,0.57
2023-03-11T12:23:30.635Z,0.50
2023-03-11T12:26:16.883Z,0.60
2023-03-11T12:28:47.544Z,0.53
2023-03-11T12:31:21.266Z,0.63
2023-03-11T12:33:51.303Z,0.50
2023-03-11T12:36:24.929Z,0.50
2023-03-11T12:38:55.802Z,0.83
2023-03-11T12:41:45.267Z,0.63
2023-03-11T12:44:24.230Z,0.60
2023-03-11T12:47:11.112Z,0.60
2023-03-11T12:49:40.108Z,0.53
2023-03-11T12:52:18.958Z,0.40
2023-03-11T12:54:49.776Z,0.90
2023-03-11T12:57:34.123Z,0.43
2023-03-11T13:00:17.530Z,0.60
2023-03-11T13:03:12.398Z,0.40
2023-03-11T13:05:49.714Z,0.50
2023-03-11T13:08:19.480Z,0.57
2023-03-11T13:10:50.166Z,0.63
2023-03-11T13:13:37.262Z,0.70
2023-03-11T13:16:20.986Z,0.47
2023-03-11T13:18:54.698Z,0.50
2023-03-11T13:21:42.483Z,0.50
2023-03-11T13:24:30.114Z,0.60
2023-03-11T13:27:06.277Z,0.60
2023-03-11T13:29:45.496Z,0.47
2023-03-11T13:32:27.728Z,0.40
2023-03-11T13:34:59.956Z,0.60
2023-03-11T13:37:32.185Z,0.50
2023-03-11T13:40:14.992Z,0.57
2023-03-11T13:42:47.275Z,0.70
2023-03-11T13:45:21.327Z,0.77
2023-03-11T13:47:50.708Z,0.50
2023-03-11T13:50:23.159Z,0.50
2023-03-11T13:52:53.547Z,0.70
2023-03-11T13:55:22.775Z,0.80
2023-03-11T13:57:53.475Z,0.60
2023-03-11T14:00:24.248Z,0.60
2023-03-11T14:02:55.472Z,0.60
2023-03-11T14:05:25.558Z,0.80
2023-03-11T14:07:54.180Z,0.80
2023-03-11T14:10:26.899Z,0.70
2023-03-11T14:13:08.097Z,0.60
2023-03-11T14:15:44.875Z,0.90
2023-03-11T14:18:33.383Z,0.60
2023-03-11T14:21:02.630Z,0.50
2023-03-11T14:23:32.459Z,0.60
2023-03-11T14:26:05.882Z,0.63
2023-03-11T14:28:38.725Z,0.60
2023-03-11T14:31:07.256Z,0.50
2023-03-11T14:33:35.785Z,0.50
2023-03-11T14:36:05.821Z,0.70
2023-03-11T14:38:34.895Z,0.50
2023-03-11T14:41:04.539Z,0.50
2023-03-11T14:43:34.784Z,0.70
2023-03-11T14:46:05.236Z,0.70
2023-03-11T14:48:36.218Z,0.60
2023-03-11T14:51:06.750Z,0.53
2023-03-11T14:53:37.645Z,1.03
2023-03-11T14:56:08.656Z,0.60
2023-03-11T14:58:38.900Z,0.50
2023-03-11T15:01:11.944Z,0.73
2023-03-11T15:03:41.639Z,0.60
2023-03-11T15:06:11.250Z,0.80
2023-03-11T15:08:44.397Z,1.17
2023-03-11T15:11:24.524Z,0.67
2023-03-11T15:13:56.355Z,0.67
2023-03-11T15:16:31.276Z,0.50
2023-03-11T15:19:03.696Z,0.67
2023-03-11T15:21:33.066Z,0.60
2023-03-11T15:24:05.290Z,0.70
2023-03-11T15:26:39.180Z,0.80
2023-03-11T15:29:15.177Z,0.60
2023-03-11T15:31:47.898Z,0.83
2023-03-11T15:34:29.485Z,0.83
2023-03-11T15:37:08.843Z,0.60
2023-03-11T15:39:49.681Z,0.90
2023-03-11T15:42:27.960Z,0.77
2023-03-11T15:45:10.504Z,0.70
2023-03-11T15:47:41.987Z,0.93
2023-03-11T15:50:24.897Z,0.77
2023-03-11T15:52:59.365Z,0.50
2023-03-11T15:55:33.848Z,0.80
2023-03-11T15:58:04.162Z,0.60
2023-03-11T16:00:32.847Z,0.93
2023-03-11T16:03:03.023Z,0.73
2023-03-11T16:05:33.442Z,1.00
2023-03-11T16:08:01.803Z,0.77
2023-03-11T16:10:31.631Z,0.80
2023-03-11T16:13:00.599Z,0.50
2023-03-11T16:15:30.374Z,0.83
2023-03-11T16:17:59.767Z,0.60
2023-03-11T16:20:31.154Z,0.80
2023-03-11T16:23:01.397Z,0.80
2023-03-11T16:25:31.858Z,0.53
2023-03-11T16:28:00.755Z,1.27
2023-03-11T16:30:30.472Z,0.90
2023-03-11T16:32:59.376Z,0.60
2023-03-11T16:35:30.185Z,0.77
2023-03-11T16:37:58.955Z,0.57
2023-03-11T16:40:29.582Z,1.10
2023-03-11T16:43:06.004Z,0.77
2023-03-11T16:45:34.628Z,0.90
2023-03-11T16:48:03.146Z,0.70
2023-03-11T16:50:34.221Z,0.90
2023-03-11T16:53:03.496Z,0.83
2023-03-11T16:55:31.989Z,0.70
2023-03-11T16:58:00.495Z,0.63
2023-03-11T17:00:29.268Z,0.80
2023-03-11T17:02:57.853Z,0.60
2023-03-11T17:05:26.793Z,0.60
2023-03-11T17:08:04.494Z,0.83
2023-03-11T17:10:40.029Z,1.00
2023-03-11T17:13:08.893Z,0.50
2023-03-11T17:15:38.386Z,0.60
2023-03-11T17:18:07.242Z,0.60
2023-03-11T17:20:39.581Z,0.70
2023-03-11T17:23:09.998Z,0.90
2023-03-11T17:25:41.697Z,0.57
2023-03-11T17:28:16.175Z,0.80
2023-03-11T17:30:50.424Z,0.70
2023-03-11T17:33:18.954Z,0.73
2023-03-11T17:35:47.639Z,0.80
2023-03-11T17:38:17.518Z,0.73
2023-03-11T17:40:45.992Z,0.47
2023-03-11T17:43:14.390Z,0.80
2023-03-11T17:45:50.228Z,0.90
2023-03-11T17:48:18.779Z,0.70
2023-03-11T17:50:47.307Z,0.93
2023-03-11T17:53:17.464Z,0.83
2023-03-11T17:55:46.175Z,0.87
2023-03-11T17:58:35.968Z,0.80
2023-03-11T18:01:05.581Z,0.83
2023-03-11T18:03:33.972Z,0.67
2023-03-11T18:06:03.224Z,0.67
2023-03-11T18:08:33.786Z,0.83
2023-03-11T18:11:03.146Z,0.73
2023-03-11T18:13:31.898Z,0.90
2023-03-11T18:16:01.320Z,0.90
2023-03-11T18:18:31.381Z,0.70
2023-03-11T18:21:02.231Z,0.80
2023-03-11T18:23:33.019Z,0.87
2023-03-11T18:26:03.796Z,0.97
2023-03-11T18:28:32.660Z,0.80
2023-03-11T18:31:06.596Z,0.47
2023-03-11T18:33:35.089Z,1.07
2023-03-11T18:36:12.418Z,0.90
2023-03-11T18:38:41.538Z,0.70
2023-03-11T18:41:11.446Z,1.10
2023-03-11T18:43:40.673Z,1.00
2023-03-11T18:46:10.126Z,1.00
2023-03-11T18:48:38.695Z,1.37
2023-03-11T18:51:08.504Z,1.00
2023-03-11T18:53:37.166Z,1.57
2023-03-11T18:56:06.909Z,1.00
2023-03-11T18:58:37.330Z,1.83
2023-03-11T19:01:06.256Z,3.07
2023-03-11T19:03:35.012Z,1.87
2023-03-11T19:06:03.657Z,1.47
2023-03-11T19:08:32.285Z,0.90
2023-03-11T19:11:01.203Z,1.83
2023-03-11T19:13:44.182Z,1.27
2023-03-11T19:16:18.173Z,1.70
2023-03-11T19:18:47.408Z,1.17
2023-03-11T19:21:21.916Z,0.80
2023-03-11T19:23:53.082Z,1.70
2023-03-11T19:26:30.709Z,1.53
2023-03-11T19:29:06.294Z,1.07
2023-03-11T19:31:36.809Z,1.47
2023-03-11T19:34:05.556Z,1.13
2023-03-11T19:36:34.129Z,0.80
2023-03-11T19:39:03.258Z,1.30
2023-03-11T19:41:31.772Z,1.40
2023-03-11T19:44:00.837Z,1.60
2023-03-11T19:46:29.733Z,0.87
2023-03-11T19:49:01.456Z,0.80
2023-03-11T19:51:46.526Z,0.87
2023-03-11T19:54:17.329Z,1.00
2023-03-11T19:56:46.068Z,1.00
2023-03-11T19:59:14.619Z,0.70
2023-03-11T20:01:43.663Z,1.30
2023-03-11T20:04:12.544Z,0.70
2023-03-11T20:06:42.786Z,0.90
2023-03-11T20:09:11.643Z,0.80
2023-03-11T20:11:41.002Z,0.90
2023-03-11T20:14:10.010Z,1.23
2023-03-11T20:16:38.637Z,1.10
2023-03-11T20:19:07.433Z,1.07
2023-03-11T20:21:39.342Z,1.50
2023-03-11T20:24:09.986Z,2.00
2023-03-11T20:26:39.011Z,4.20
2023-03-11T20:29:07.927Z,3.47
2023-03-11T20:31:37.490Z,1.67
2023-03-11T20:34:06.566Z,1.87
2023-03-11T20:36:35.733Z,1.10
2023-03-11T20:39:04.243Z,0.80
2023-03-11T20:41:37.537Z,0.90
2023-03-11T20:44:06.704Z,0.57
2023-03-11T20:46:35.382Z,0.80
2023-03-11T20:49:04.026Z,0.83
2023-03-11T20:51:33.076Z,0.77
2023-03-11T20:54:01.514Z,1.03
2023-03-11T20:56:29.992Z,1.00
2023-03-11T20:59:01.115Z,1.30
2023-03-11T21:01:32.409Z,0.80
2023-03-11T21:04:03.189Z,0.77
2023-03-11T21:06:32.798Z,0.50
2023-03-11T21:09:02.420Z,1.57
2023-03-11T21:11:31.016Z,0.70
2023-03-11T21:14:01.470Z,0.90
2023-03-11T21:16:30.323Z,0.70
2023-03-11T21:19:17.465Z,0.67
2023-03-11T21:21:46.059Z,1.13
2023-03-11T21:24:18.422Z,1.00
2023-03-11T21:26:46.924Z,1.13
2023-03-11T21:29:17.129Z,0.87
2023-03-11T21:31:45.948Z,0.80
2023-03-11T21:34:18.737Z,0.93
2023-03-11T21:36:47.378Z,1.03
2023-03-11T21:39:15.847Z,1.37
2023-03-11T21:41:44.585Z,1.17
2023-03-11T21:44:13.532Z,1.00
2023-03-11T21:46:43.908Z,1.07
2023-03-11T21:49:12.751Z,0.97
2023-03-11T21:51:41.168Z,1.30
2023-03-11T21:54:10.969Z,1.00
2023-03-11T21:56:39.532Z,0.87
2023-03-11T21:59:08.688Z,1.60
2023-03-11T22:01:37.565Z,1.30
2023-03-11T22:04:08.244Z,1.30
2023-03-11T22:06:36.734Z,0.90
2023-03-11T22:09:05.637Z,1.50
2023-03-11T22:11:35.041Z,0.83
2023-03-11T22:14:03.529Z,0.87
2023-03-11T22:16:32.096Z,0.90
2023-03-11T22:19:00.919Z,1.60
2023-03-11T22:21:30.974Z,1.73
2023-03-11T22:23:59.502Z,1.40
2023-03-11T22:26:28.043Z,1.03
2023-03-11T22:28:56.658Z,1.00
2023-03-11T22:31:25.153Z,1.43
2023-03-11T22:33:55.496Z,1.40
2023-03-11T22:36:24.056Z,1.50
2023-03-11T22:38:53.795Z,1.40
2023-03-11T22:41:22.211Z,1.10
2023-03-11T22:43:50.707Z,1.30
2023-03-11T22:46:19.160Z,1.43
2023-03-11T22:48:47.652Z,1.30
2023-03-11T22:51:16.189Z,1.30
2023-03-11T22:53:44.589Z,1.53
2023-03-11T22:56:20.164Z,1.17
2023-03-11T22:58:48.732Z,1.57
2023-03-11T23:01:17.658Z,1.40
2023-03-11T23:03:46.423Z,1.90
2023-03-11T23:06:16.997Z,1.33
2023-03-11T23:08:45.812Z,1.57
2023-03-11T23:11:16.955Z,1.53
2023-03-11T23:13:46.019Z,1.27
2023-03-11T23:16:15.771Z,1.13
2023-03-11T23:18:44.590Z,1.27
2023-03-11T23:21:17.096Z,1.80
2023-03-11T23:23:46.061Z,1.50
2023-03-11T23:26:16.718Z,1.73
2023-03-11T23:28:45.312Z,1.93
2023-03-11T23:31:14.713Z,1.80
2023-03-11T23:33:43.586Z,2.27
2023-03-11T23:36:12.752Z,2.20
2023-03-11T23:38:41.350Z,1.77
2023-03-11T23:41:10.799Z,2.27
2023-03-11T23:43:41.028Z,1.53
2023-03-11T23:46:10.280Z,2.13
2023-03-11T23:48:39.142Z,1.90
2023-03-11T23:51:08.312Z,2.47
2023-03-11T23:53:37.013Z,1.50
2023-03-11T23:56:10.709Z,1.50
2023-03-11T23:58:40.659Z,1.90
